createdAt,value
2023-05-02T05:03:09.608Z,0.50
2023-05-02T05:04:10.750Z,0.50
2023-05-02T05:05:10.561Z,0.50
2023-05-02T05:06:10.613Z,0.50
2023-05-02T05:07:09.613Z,0.50
2023-05-02T05:08:10.639Z,0.50
2023-05-02T05:09:09.673Z,0.34
2023-05-02T05:10:09.653Z,0.34
2023-05-02T05:11:09.701Z,0.34
2023-05-02T05:12:10.746Z,0.34
2023-05-02T05:13:10.793Z,0.34
2023-05-02T05:14:09.857Z,0.34
2023-05-02T05:15:09.922Z,0.34
2023-05-02T05:16:10.062Z,0.34
2023-05-02T05:17:10.053Z,0.34
2023-05-02T05:18:10.131Z,0.34
2023-05-02T05:19:11.201Z,0.34
2023-05-02T05:20:11.223Z,0.34
2023-05-02T05:21:11.306Z,0.34
2023-05-02T05:22:11.335Z,0.34
2023-05-02T05:23:11.375Z,0.34
2023-05-02T05:24:11.435Z,0.34
2023-05-02T05:25:10.481Z,0.34
2023-05-02T05:26:11.543Z,0.34
2023-05-02T05:27:11.632Z,0.34
2023-05-02T05:28:10.627Z,0.34
2023-05-02T05:29:11.693Z,0.34
2023-05-02T05:30:11.713Z,0.34
2023-05-02T05:31:10.826Z,0.34
2023-05-02T05:32:10.862Z,0.34
2023-05-02T05:33:11.911Z,0.34
2023-05-02T05:34:10.996Z,0.34
2023-05-02T05:35:11.992Z,0.34
2023-05-02T05:36:12.049Z,0.34
2023-05-02T05:37:12.071Z,0.34
2023-05-02T05:38:12.135Z,0.34
2023-05-02T05:39:11.186Z,0.34
2023-05-02T05:40:12.199Z,0.34
2023-05-02T05:41:12.287Z,0.34
2023-05-02T05:42:12.293Z,0.34
2023-05-02T05:43:12.337Z,0.34
2023-05-02T05:44:12.393Z,0.34
2023-05-02T05:45:12.427Z,0.34
2023-05-02T05:46:11.492Z,0.34
2023-05-02T05:47:12.584Z,0.34
2023-05-02T05:48:12.649Z,0.34
2023-05-02T05:49:12.665Z,0.35
2023-05-02T05:50:11.703Z,0.42
2023-05-02T05:51:11.806Z,0.48
2023-05-02T05:52:12.806Z,0.50
2023-05-02T05:53:12.857Z,0.50
2023-05-02T05:54:12.928Z,0.51
2023-05-02T05:55:12.986Z,0.51
2023-05-02T05:56:13.176Z,0.50
2023-05-02T05:57:12.102Z,0.50
2023-05-02T05:58:13.179Z,0.50
2023-05-02T05:59:12.208Z,0.50
2023-05-02T06:00:12.265Z,0.51
2023-05-02T06:01:12.331Z,0.50
2023-05-02T06:02:13.721Z,0.51
2023-05-02T06:03:13.512Z,0.51
2023-05-02T06:04:13.582Z,0.50
2023-05-02T06:05:12.691Z,0.50
2023-05-02T06:06:12.601Z,0.51
2023-05-02T06:07:13.655Z,0.50
2023-05-02T06:08:13.691Z,0.51
2023-05-02T06:09:12.745Z,0.50
2023-05-02T06:10:12.806Z,0.50
2023-05-02T06:11:12.851Z,0.50
2023-05-02T06:12:13.910Z,0.51
2023-05-02T06:13:12.972Z,0.51
2023-05-02T06:14:13.033Z,0.50
2023-05-02T06:15:14.090Z,0.51
2023-05-02T06:16:13.304Z,0.50
2023-05-02T06:17:14.401Z,0.51
2023-05-02T06:18:14.536Z,0.52
2023-05-02T06:19:13.404Z,0.54
2023-05-02T06:20:15.289Z,0.55
2023-05-02T06:21:14.415Z,0.55
2023-05-02T06:22:14.352Z,0.55
2023-05-02T06:23:13.373Z,0.55
2023-05-02T06:24:14.349Z,0.56
2023-05-02T06:25:14.305Z,0.54
2023-05-02T06:26:14.367Z,0.56
2023-05-02T06:27:13.344Z,0.56
2023-05-02T06:28:14.357Z,0.56
2023-05-02T06:29:14.281Z,0.56
2023-05-02T06:30:13.281Z,0.58
2023-05-02T06:31:13.280Z,0.58
2023-05-02T06:32:14.337Z,0.58
2023-05-02T06:33:14.314Z,0.58
2023-05-02T06:34:13.297Z,0.60
2023-05-02T06:35:13.371Z,0.60
2023-05-02T06:36:13.238Z,0.61
2023-05-02T06:37:14.229Z,0.64
2023-05-02T06:38:13.226Z,0.62
2023-05-02T06:39:14.240Z,0.65
2023-05-02T06:40:14.202Z,0.66
2023-05-02T06:41:15.883Z,0.65
2023-05-02T06:42:13.198Z,0.65
2023-05-02T06:43:14.187Z,0.65
2023-05-02T06:44:13.174Z,0.66
2023-05-02T06:45:14.164Z,0.67
2023-05-02T06:46:13.152Z,0.69
2023-05-02T06:47:14.222Z,0.66
2023-05-02T06:48:13.204Z,0.68
2023-05-02T06:49:13.122Z,0.70
2023-05-02T06:50:14.130Z,0.70
2023-05-02T06:51:13.122Z,0.72
2023-05-02T06:52:14.191Z,0.71
2023-05-02T06:53:13.113Z,0.72
2023-05-02T06:54:14.136Z,0.73
2023-05-02T06:55:14.150Z,0.74
2023-05-02T06:56:13.092Z,0.75
2023-05-02T06:57:13.198Z,0.77
2023-05-02T06:58:14.083Z,0.77
2023-05-02T06:59:14.064Z,0.78
2023-05-02T07:00:13.060Z,0.78
2023-05-02T07:01:14.143Z,0.77
2023-05-02T07:02:14.056Z,0.77
2023-05-02T07:03:13.128Z,0.77
2023-05-02T07:04:14.079Z,0.77
2023-05-02T07:05:13.021Z,0.76
2023-05-02T07:06:14.027Z,0.76
2023-05-02T07:07:14.021Z,0.76
2023-05-02T07:08:13.001Z,0.78
2023-05-02T07:09:14.053Z,0.78
2023-05-02T07:10:12.990Z,0.77
2023-05-02T07:11:13.005Z,0.78
2023-05-02T07:12:13.974Z,0.78
2023-05-02T07:13:12.963Z,0.80
2023-05-02T07:14:13.966Z,0.79
2023-05-02T07:15:14.102Z,0.81
2023-05-02T07:16:12.976Z,0.80
2023-05-02T07:17:14.011Z,0.77
2023-05-02T07:18:14.035Z,0.51
2023-05-02T07:19:12.929Z,0.50
2023-05-02T07:20:12.937Z,0.49
2023-05-02T07:21:13.922Z,0.50
2023-05-02T07:22:13.917Z,0.51
2023-05-02T07:23:12.903Z,0.53
2023-05-02T07:24:13.897Z,0.58
2023-05-02T07:25:12.902Z,0.59
2023-05-02T07:26:12.928Z,0.59
2023-05-02T07:27:13.896Z,0.60
2023-05-02T07:28:13.847Z,0.62
2023-05-02T07:29:13.864Z,0.64
2023-05-02T07:30:13.853Z,0.65
2023-05-02T07:31:13.915Z,0.68
2023-05-02T07:32:13.078Z,0.70
2023-05-02T07:33:14.038Z,0.73
2023-05-02T07:34:13.010Z,0.75
2023-05-02T07:35:14.042Z,0.74
2023-05-02T07:36:13.040Z,0.76
2023-05-02T07:37:13.095Z,0.77
2023-05-02T07:38:14.099Z,0.79
2023-05-02T07:39:14.147Z,0.79
2023-05-02T07:40:13.131Z,0.79
2023-05-02T07:41:14.152Z,0.83
2023-05-02T07:42:13.180Z,0.82
2023-05-02T07:43:14.234Z,0.84
2023-05-02T07:44:13.240Z,0.84
2023-05-02T07:45:14.339Z,0.86
2023-05-02T07:46:13.331Z,0.88
2023-05-02T07:47:14.727Z,0.90
2023-05-02T07:48:14.359Z,0.92
2023-05-02T07:49:14.313Z,0.92
2023-05-02T07:50:13.294Z,0.93
2023-05-02T07:51:14.340Z,0.92
2023-05-02T07:52:14.713Z,0.94
2023-05-02T07:53:13.356Z,0.94
2023-05-02T07:54:14.377Z,0.96
2023-05-02T07:55:13.375Z,0.96
2023-05-02T07:56:14.401Z,0.92
2023-05-02T07:57:14.441Z,0.94
2023-05-02T07:58:14.492Z,0.92
2023-05-02T07:59:14.483Z,0.90
2023-05-02T08:00:14.754Z,0.92
2023-05-02T08:01:13.492Z,0.93
2023-05-02T08:02:13.786Z,0.91
2023-05-02T08:03:14.821Z,0.91
2023-05-02T08:04:13.742Z,0.90
2023-05-02T08:05:14.785Z,0.91
2023-05-02T08:06:14.660Z,0.92
2023-05-02T08:07:13.613Z,0.95
2023-05-02T08:08:13.610Z,0.98
2023-05-02T08:09:13.612Z,0.99
2023-05-02T08:10:14.649Z,0.97
2023-05-02T08:11:13.619Z,0.94
2023-05-02T08:12:14.681Z,1.02
2023-05-02T08:13:14.729Z,1.00
2023-05-02T08:14:14.668Z,0.98
2023-05-02T08:19:02.705Z,0.50
2023-05-02T08:20:03.833Z,0.50
2023-05-02T08:21:02.768Z,0.50
2023-05-02T08:22:03.771Z,0.50
2023-05-02T08:23:02.837Z,0.50
2023-05-02T08:24:03.816Z,0.50
2023-05-02T08:25:02.847Z,0.50
2023-05-02T08:26:03.856Z,0.50
2023-05-02T08:27:03.876Z,0.50
2023-05-02T08:28:03.621Z,0.50
2023-05-02T08:29:03.891Z,0.50
2023-05-02T08:30:03.384Z,0.50
2023-05-02T08:31:03.929Z,0.50
2023-05-02T08:32:04.001Z,0.50
2023-05-02T08:33:03.087Z,0.52
2023-05-02T08:34:03.956Z,0.51
2023-05-02T08:35:04.023Z,0.50
2023-05-02T08:36:02.953Z,0.51
2023-05-02T08:37:02.979Z,0.52
2023-05-02T08:38:03.026Z,0.52
2023-05-02T08:39:03.022Z,0.52
2023-05-02T08:40:04.300Z,0.53
2023-05-02T08:41:03.003Z,0.53
2023-05-02T08:42:04.014Z,0.53
2023-05-02T08:43:04.400Z,0.53
2023-05-02T08:44:04.055Z,0.52
2023-05-02T08:45:04.060Z,0.53
2023-05-02T08:46:04.077Z,0.53
2023-05-02T08:47:13.141Z,0.52
2023-05-02T08:48:04.175Z,0.53
2023-05-02T08:49:04.248Z,0.53
2023-05-02T08:50:04.182Z,0.53
2023-05-02T08:51:03.117Z,0.52
2023-05-02T08:52:04.097Z,0.53
2023-05-02T08:53:03.104Z,0.52
2023-05-02T08:54:04.087Z,0.52
2023-05-02T08:55:04.418Z,0.51
2023-05-02T08:56:04.096Z,0.51
2023-05-02T08:57:04.044Z,0.51
2023-05-02T08:58:04.433Z,0.52
2023-05-02T08:59:03.027Z,0.52
2023-05-02T09:00:04.031Z,0.52
2023-05-02T09:01:04.100Z,0.52
2023-05-02T09:02:03.015Z,0.52
2023-05-02T09:03:04.062Z,0.52
2023-05-02T09:04:03.019Z,0.52
2023-05-02T09:05:03.982Z,0.53
2023-05-02T09:06:04.039Z,0.54
2023-05-02T09:07:04.007Z,0.52
2023-05-02T09:08:02.996Z,0.54
2023-05-02T09:09:03.994Z,0.53
2023-05-02T09:10:03.966Z,0.53
2023-05-02T09:11:02.946Z,0.54
2023-05-02T09:12:04.050Z,0.55
2023-05-02T09:13:03.950Z,0.56
2023-05-02T09:14:04.041Z,0.56
2023-05-02T09:15:03.984Z,0.55
2023-05-02T09:16:03.939Z,0.55
2023-05-02T09:17:03.208Z,0.55
2023-05-02T09:18:03.136Z,0.55
2023-05-02T09:19:03.908Z,0.56
2023-05-02T09:20:03.883Z,0.56
2023-05-02T09:21:03.979Z,0.57
2023-05-02T09:22:02.900Z,0.57
2023-05-02T09:23:02.908Z,0.57
2023-05-02T09:24:02.896Z,0.56
2023-05-02T09:25:03.863Z,0.58
2023-05-02T09:26:02.877Z,0.57
2023-05-02T09:27:03.929Z,0.59
2023-05-02T09:28:03.881Z,0.60
2023-05-02T09:29:02.841Z,0.60
2023-05-02T09:30:03.919Z,0.59
2023-05-02T09:31:03.962Z,0.59
2023-05-02T09:32:03.003Z,0.59
2023-05-02T09:33:04.540Z,0.59
2023-05-02T09:34:04.014Z,0.59
2023-05-02T09:35:04.081Z,0.60
2023-05-02T09:36:04.104Z,0.60
2023-05-02T09:37:04.174Z,0.60
2023-05-02T09:38:04.129Z,0.61
2023-05-02T09:39:03.131Z,0.61
2023-05-02T09:40:04.303Z,0.61
2023-05-02T09:41:04.128Z,0.62
2023-05-02T09:42:04.240Z,0.62
2023-05-02T09:43:04.140Z,0.62
2023-05-02T09:44:04.127Z,0.63
2023-05-02T09:45:03.146Z,0.46
2023-05-02T09:46:04.225Z,0.36
2023-05-02T09:47:03.196Z,0.34
2023-05-02T09:48:03.536Z,0.44
2023-05-02T09:49:03.231Z,0.50
2023-05-02T09:50:04.230Z,0.51
2023-05-02T09:51:03.313Z,0.54
2023-05-02T09:52:03.265Z,0.56
2023-05-02T09:53:03.330Z,0.60
2023-05-02T09:54:03.400Z,0.63
2023-05-02T09:55:03.449Z,0.65
2023-05-02T09:56:04.446Z,0.67
2023-05-02T09:57:03.443Z,0.70
2023-05-02T09:58:04.496Z,0.74
2023-05-02T09:59:04.476Z,0.77
2023-05-02T10:00:04.469Z,0.81
2023-05-02T10:01:04.490Z,0.83
2023-05-02T10:02:04.628Z,0.86
2023-05-02T10:03:04.505Z,0.88
2023-05-02T10:04:04.550Z,0.91
2023-05-02T10:05:03.645Z,0.92
2023-05-02T10:06:03.499Z,0.93
2023-05-02T10:07:04.516Z,0.93
2023-05-02T10:08:04.546Z,0.94
2023-05-02T10:09:04.552Z,0.94
2023-05-02T10:10:03.590Z,0.96
2023-05-02T10:11:04.577Z,0.97
2023-05-02T10:12:04.576Z,0.99
2023-05-02T10:13:03.608Z,1.00
2023-05-02T10:14:04.553Z,0.99
2023-05-02T10:15:03.635Z,1.00
2023-05-02T10:16:03.580Z,1.01
2023-05-02T10:17:03.554Z,1.04
2023-05-02T10:18:04.673Z,1.07
2023-05-02T10:19:03.758Z,1.05
2023-05-02T10:20:04.724Z,1.08
2023-05-02T10:21:04.761Z,1.07
2023-05-02T10:22:04.840Z,1.08
2023-05-02T10:23:04.918Z,1.11
2023-05-02T10:24:04.989Z,1.10
2023-05-02T10:25:04.983Z,1.11
2023-05-02T10:26:03.993Z,1.11
2023-05-02T10:27:05.033Z,1.12
2023-05-02T10:28:04.017Z,1.13
2023-05-02T10:29:04.993Z,1.14
2023-05-02T10:30:05.011Z,1.16
2023-05-02T10:31:05.060Z,1.17
2023-05-02T10:32:05.102Z,1.16
2023-05-02T10:33:05.004Z,1.16
2023-05-02T10:34:04.008Z,1.15
2023-05-02T10:35:04.987Z,1.16
2023-05-02T10:36:05.005Z,1.18
2023-05-02T10:37:04.020Z,1.15
2023-05-02T10:38:05.048Z,1.15
2023-05-02T10:39:04.002Z,1.15
2023-05-02T10:40:05.002Z,1.14
2023-05-02T10:41:05.072Z,1.14
2023-05-02T10:42:04.045Z,1.17
2023-05-02T10:43:05.051Z,1.20
2023-05-02T10:44:04.474Z,1.20
2023-05-02T10:45:05.198Z,1.19
2023-05-02T10:46:05.145Z,1.20
2023-05-02T10:47:05.186Z,1.21
2023-05-02T10:48:04.233Z,1.12
2023-05-02T10:49:05.327Z,0.89
2023-05-02T10:50:04.383Z,0.68
2023-05-02T10:51:05.155Z,0.49
2023-05-02T10:52:04.160Z,0.52
2023-05-02T10:53:04.179Z,0.50
2023-05-02T10:54:05.212Z,0.50
2023-05-02T10:55:05.241Z,0.52
2023-05-02T10:56:04.289Z,0.52
2023-05-02T10:57:05.263Z,0.50
2023-05-02T10:58:05.304Z,0.49
2023-05-02T10:59:05.355Z,0.50
2023-05-02T11:00:04.384Z,0.50
2023-05-02T11:01:05.456Z,0.54
2023-05-02T11:02:07.287Z,0.55
2023-05-02T11:03:04.581Z,0.52
2023-05-02T11:04:05.463Z,0.55
2023-05-02T11:05:05.496Z,0.53
2023-05-02T11:06:04.451Z,0.59
2023-05-02T11:07:05.427Z,0.57
2023-05-02T11:08:05.438Z,0.54
2023-05-02T11:09:05.414Z,0.57
2023-05-02T11:10:05.413Z,0.64
2023-05-02T11:11:05.424Z,0.71
2023-05-02T11:12:04.440Z,0.72
2023-05-02T11:13:05.381Z,0.73
2023-05-02T11:14:05.400Z,0.81
2023-05-02T11:15:04.402Z,0.84
2023-05-02T11:16:04.406Z,0.91
2023-05-02T11:17:04.599Z,1.00
2023-05-02T11:18:05.413Z,1.08
2023-05-02T11:19:05.369Z,1.17
2023-05-02T11:20:05.347Z,1.27
2023-05-02T11:21:05.340Z,1.27
2023-05-02T11:22:05.342Z,1.36
2023-05-02T11:23:04.308Z,1.39
2023-05-02T11:24:04.326Z,1.40
2023-05-02T11:25:05.325Z,1.48
2023-05-02T11:26:05.300Z,1.54
2023-05-02T11:27:04.285Z,1.56
2023-05-02T11:28:05.286Z,1.58
2023-05-02T11:29:05.299Z,1.58
2023-05-02T11:30:05.280Z,1.59
2023-05-02T11:31:04.307Z,1.61
2023-05-02T11:32:05.330Z,1.66
2023-05-02T11:33:05.396Z,1.63
2023-05-02T11:34:05.251Z,1.66
2023-05-02T11:35:05.235Z,1.66
2023-05-02T11:36:04.218Z,1.67
2023-05-02T11:37:05.228Z,1.76
2023-05-02T11:38:05.237Z,1.72
2023-05-02T11:39:04.474Z,1.77
2023-05-02T11:40:05.291Z,1.75
2023-05-02T11:41:05.338Z,1.73
2023-05-02T11:42:05.366Z,1.73
2023-05-02T11:43:05.386Z,1.78
2023-05-02T11:44:05.478Z,1.81
2023-05-02T11:45:05.420Z,1.74
2023-05-02T11:46:05.510Z,1.79
2023-05-02T11:47:04.507Z,1.78
2023-05-02T11:48:05.579Z,1.77
2023-05-02T11:49:06.138Z,1.76
2023-05-02T11:50:04.641Z,1.80
2023-05-02T11:51:04.739Z,1.77
2023-05-02T11:52:05.730Z,1.78
2023-05-02T11:53:04.783Z,1.79
2023-05-02T11:54:04.841Z,1.81
2023-05-02T11:55:05.894Z,1.81
2023-05-02T11:56:05.074Z,1.84
2023-05-02T11:57:06.027Z,1.83
2023-05-02T11:58:05.062Z,1.80
2023-05-02T11:59:06.093Z,1.81
2023-05-02T12:00:06.140Z,1.80
2023-05-02T12:01:06.187Z,1.78
2023-05-02T12:02:05.232Z,1.81
2023-05-02T12:03:06.365Z,1.84
2023-05-02T12:04:06.281Z,1.80
2023-05-02T12:05:06.397Z,1.80
2023-05-02T12:06:05.537Z,1.82
2023-05-02T12:07:05.531Z,1.84
2023-05-02T12:08:06.474Z,1.83
2023-05-02T12:09:06.532Z,1.83
2023-05-02T12:10:06.594Z,1.85
2023-05-02T12:11:06.649Z,1.84
2023-05-02T12:12:06.769Z,1.82
2023-05-02T12:13:05.764Z,1.89
2023-05-02T12:14:06.810Z,1.89
2023-05-02T12:15:06.808Z,1.91
2023-05-02T12:16:06.857Z,1.92
2023-05-02T12:17:06.882Z,1.89
2023-05-02T12:18:07.021Z,1.92
2023-05-02T12:19:07.176Z,1.92
2023-05-02T12:20:06.987Z,1.92
2023-05-02T12:21:07.054Z,1.95
2023-05-02T12:22:07.065Z,1.97
2023-05-02T12:23:07.140Z,2.04
2023-05-02T12:24:06.139Z,2.00
2023-05-02T12:25:07.155Z,2.00
2023-05-02T12:26:07.376Z,1.99
2023-05-02T12:27:06.194Z,2.05
2023-05-02T12:28:07.230Z,2.03
2023-05-02T12:29:07.260Z,2.01
2023-05-02T12:30:07.309Z,2.00
2023-05-02T12:31:07.390Z,2.00
2023-05-02T12:32:07.353Z,1.97
2023-05-02T12:33:07.478Z,1.96
2023-05-02T12:34:06.446Z,1.97
2023-05-02T12:35:07.493Z,1.94
2023-05-02T12:36:06.520Z,1.99
2023-05-02T12:37:07.576Z,1.97
2023-05-02T12:38:06.578Z,1.97
2023-05-02T12:39:07.634Z,1.99
2023-05-02T12:40:07.663Z,2.00
2023-05-02T12:41:06.696Z,1.97
2023-05-02T12:42:07.735Z,1.96
2023-05-02T12:43:07.784Z,1.93
2023-05-02T12:44:08.032Z,1.95
2023-05-02T12:45:06.854Z,1.94
2023-05-02T12:46:07.885Z,1.97
2023-05-02T12:47:08.094Z,1.99
2023-05-02T12:48:07.012Z,2.04
2023-05-02T12:49:08.074Z,1000.00
2023-05-02T12:50:08.041Z,559.30
2023-05-02T12:51:08.128Z,451.76
2023-05-02T12:52:08.105Z,65.75
2023-05-02T12:53:08.151Z,208.06
2023-05-02T12:54:08.202Z,496.14
2023-05-02T12:55:08.234Z,439.62
2023-05-02T12:56:07.279Z,418.01
2023-05-02T12:57:08.298Z,400.68
2023-05-02T12:58:07.334Z,380.89
2023-05-02T12:59:07.367Z,353.88
2023-05-02T13:00:08.408Z,270.05
2023-05-02T13:01:07.482Z,188.54
2023-05-02T13:02:07.473Z,139.42
2023-05-02T13:03:07.637Z,123.67
2023-05-02T13:04:07.640Z,116.89
2023-05-02T13:05:07.625Z,115.67
2023-05-02T13:06:07.723Z,95.50
2023-05-02T13:07:08.763Z,77.32
2023-05-02T13:08:07.819Z,64.69
2023-05-02T13:09:08.865Z,52.58
2023-05-02T13:10:08.958Z,46.34
2023-05-02T13:11:08.984Z,44.41
2023-05-02T13:12:09.048Z,44.01
2023-05-02T13:13:08.113Z,42.63
2023-05-02T13:14:09.129Z,39.15
2023-05-02T13:15:08.247Z,38.45
2023-05-02T13:16:09.388Z,37.66
2023-05-02T13:17:08.281Z,38.66
2023-05-02T13:18:09.283Z,38.46
2023-05-02T13:19:08.192Z,40.21
2023-05-02T13:20:09.231Z,38.51
2023-05-02T13:21:08.223Z,38.79
2023-05-02T13:22:09.214Z,37.80
2023-05-02T13:23:09.236Z,37.08
2023-05-02T13:24:08.224Z,34.52
2023-05-02T13:25:09.255Z,33.43
2023-05-02T13:26:09.301Z,31.82
2023-05-02T13:27:08.354Z,31.46
2023-05-02T13:28:09.398Z,30.12
2023-05-02T13:29:08.425Z,29.21
2023-05-02T13:30:09.966Z,28.63
2023-05-02T13:31:08.592Z,27.88
2023-05-02T13:32:09.530Z,27.63
2023-05-02T13:33:09.613Z,26.44
2023-05-02T13:34:09.577Z,26.13
2023-05-02T13:35:09.623Z,26.14
2023-05-02T13:36:08.701Z,24.90
2023-05-02T13:37:09.711Z,25.23
2023-05-02T13:38:08.725Z,24.43
2023-05-02T13:39:09.856Z,24.46
2023-05-02T13:40:09.822Z,24.06
2023-05-02T13:41:09.823Z,23.92
2023-05-02T13:42:08.850Z,23.45
2023-05-02T13:43:09.852Z,23.16
2023-05-02T13:44:08.867Z,23.13
2023-05-02T13:45:08.878Z,23.15
2023-05-02T13:46:09.927Z,23.09
2023-05-02T13:47:08.954Z,22.73
2023-05-02T13:48:09.082Z,22.67
2023-05-02T13:49:10.071Z,22.24
2023-05-02T13:50:10.135Z,22.73
2023-05-02T13:51:10.189Z,22.19
2023-05-02T13:52:10.270Z,21.70
2023-05-02T13:53:10.323Z,21.95
2023-05-02T13:54:09.365Z,21.50
2023-05-02T13:55:09.430Z,21.54
2023-05-02T13:56:09.360Z,21.36
2023-05-02T13:57:09.381Z,21.88
2023-05-02T13:58:10.393Z,21.01
2023-05-02T13:59:11.352Z,20.94
2023-05-02T14:00:09.473Z,20.76
2023-05-02T14:01:10.541Z,20.74
2023-05-02T14:02:09.741Z,20.26
2023-05-02T14:03:09.643Z,20.40
2023-05-02T14:04:09.692Z,20.59
2023-05-02T14:05:10.633Z,20.07
2023-05-02T14:06:10.669Z,20.02
2023-05-02T14:07:10.684Z,20.09
2023-05-02T14:08:10.738Z,19.89
2023-05-02T14:09:09.729Z,20.00
2023-05-02T14:10:09.768Z,19.34
2023-05-02T14:11:09.796Z,19.41
2023-05-02T14:12:10.828Z,19.22
2023-05-02T14:13:09.866Z,19.06
2023-05-02T14:14:10.928Z,19.13
2023-05-02T14:15:10.001Z,19.25
2023-05-02T14:16:11.063Z,19.12
2023-05-02T14:17:11.015Z,18.76
2023-05-02T14:18:10.123Z,18.34
2023-05-02T14:19:11.085Z,18.55
2023-05-02T14:20:11.108Z,19.01
2023-05-02T14:21:10.126Z,18.85
2023-05-02T14:22:10.133Z,18.77
2023-05-02T14:23:10.151Z,19.72
2023-05-02T14:24:10.181Z,18.74
2023-05-02T14:25:11.198Z,17.68
2023-05-02T14:26:11.220Z,17.54
2023-05-02T14:27:11.305Z,17.68
2023-05-02T14:28:10.344Z,18.05
2023-05-02T14:29:10.363Z,17.93
2023-05-02T14:30:10.428Z,17.67
2023-05-02T14:31:11.507Z,17.78
2023-05-02T14:32:10.459Z,17.59
2023-05-02T14:33:11.500Z,17.31
2023-05-02T14:34:10.513Z,17.02
2023-05-02T14:35:11.529Z,16.87
2023-05-02T14:36:10.548Z,16.98
2023-05-02T14:37:10.545Z,16.57
2023-05-02T14:38:11.581Z,16.23
2023-05-02T14:39:11.611Z,16.45
2023-05-02T14:40:11.628Z,16.51
2023-05-02T14:41:11.621Z,16.17
2023-05-02T14:42:10.638Z,16.35
2023-05-02T14:43:14.791Z,16.31
2023-05-02T14:44:10.629Z,16.30
2023-05-02T14:45:11.646Z,15.96
2023-05-02T14:46:10.647Z,16.18
2023-05-02T14:47:10.751Z,16.15
2023-05-02T14:48:11.796Z,15.79
2023-05-02T14:49:11.602Z,15.97
2023-05-02T14:50:11.619Z,15.57
2023-05-02T14:51:10.593Z,15.56
2023-05-02T14:52:11.594Z,15.57
2023-05-02T14:53:10.589Z,15.24
2023-05-02T14:54:10.587Z,15.31
2023-05-02T14:55:10.566Z,14.91
2023-05-02T14:56:11.561Z,14.82
2023-05-02T14:57:11.559Z,14.70
2023-05-02T14:58:10.575Z,14.69
2023-05-02T14:59:10.664Z,14.59
2023-05-02T15:00:10.629Z,14.46
2023-05-02T15:01:11.607Z,14.56
2023-05-02T15:02:11.623Z,14.51
2023-05-02T15:03:10.637Z,14.31
2023-05-02T15:04:10.757Z,14.23
2023-05-02T15:05:10.516Z,14.27
2023-05-02T15:06:10.558Z,14.02
2023-05-02T15:07:10.529Z,14.26
2023-05-02T15:08:11.511Z,13.87
2023-05-02T15:09:10.486Z,13.58
2023-05-02T15:10:11.487Z,13.74
2023-05-02T15:11:11.502Z,13.66
2023-05-02T15:12:11.461Z,13.49
2023-05-02T15:13:11.453Z,13.37
2023-05-02T15:14:10.448Z,13.22
2023-05-02T15:15:10.453Z,13.03
2023-05-02T15:16:11.518Z,13.11
2023-05-02T15:17:11.479Z,13.01
2023-05-02T15:18:10.484Z,13.09
2023-05-02T15:19:11.414Z,12.79
2023-05-02T15:20:11.423Z,13.12
2023-05-02T15:21:11.401Z,12.92
2023-05-02T15:22:10.393Z,12.72
2023-05-02T15:23:11.398Z,12.54
2023-05-02T15:24:10.395Z,12.59
2023-05-02T15:25:11.400Z,12.45
2023-05-02T15:26:11.362Z,12.40
2023-05-02T15:27:11.367Z,12.23
2023-05-02T15:28:11.360Z,12.21
2023-05-02T15:29:11.353Z,12.03
